createdAt,value
2023-05-07T00:00:08.800Z,24.85
2023-05-07T00:02:36.572Z,25.55
2023-05-07T00:05:04.562Z,26.32
2023-05-07T00:07:32.247Z,27.03
2023-05-07T00:09:59.377Z,27.65
2023-05-07T00:12:27.060Z,28.32
2023-05-07T00:14:54.485Z,28.90
2023-05-07T00:17:21.934Z,29.45
2023-05-07T00:19:49.033Z,30.00
2023-05-07T00:22:16.608Z,30.48
2023-05-07T00:24:43.805Z,30.98
2023-05-07T00:27:10.930Z,31.50
2023-05-07T00:29:38.128Z,31.77
2023-05-07T00:32:06.227Z,32.27
2023-05-07T00:34:33.543Z,32.83
2023-05-07T00:37:00.743Z,33.26
2023-05-07T00:39:28.122Z,32.86
2023-05-07T00:41:55.369Z,32.78
2023-05-07T00:44:22.825Z,33.33
2023-05-07T00:46:50.657Z,33.87
2023-05-07T00:49:18.198Z,34.23
2023-05-07T00:51:45.989Z,34.36
2023-05-07T00:54:13.323Z,34.67
2023-05-07T00:56:40.809Z,35.17
2023-05-07T00:59:08.226Z,35.59
2023-05-07T01:01:35.648Z,35.80
2023-05-07T01:04:03.724Z,35.96
2023-05-07T01:06:31.597Z,36.10
2023-05-07T01:08:59.144Z,36.64
2023-05-07T01:11:26.751Z,37.05
2023-05-07T01:13:53.970Z,37.16
2023-05-07T01:16:22.496Z,37.55
2023-05-07T01:18:49.772Z,37.85
2023-05-07T01:21:17.826Z,38.09
2023-05-07T01:23:45.994Z,38.28
2023-05-07T01:26:13.409Z,38.40
2023-05-07T01:28:41.241Z,38.58
2023-05-07T01:31:09.027Z,38.84
2023-05-07T01:33:36.167Z,39.05
2023-05-07T01:36:07.455Z,39.18
2023-05-07T01:38:34.719Z,39.11
2023-05-07T01:41:02.069Z,39.42
2023-05-07T01:43:30.623Z,39.48
2023-05-07T01:45:58.920Z,39.47
2023-05-07T01:48:26.135Z,39.39
2023-05-07T01:50:53.818Z,39.34
2023-05-07T01:53:20.818Z,39.40
2023-05-07T01:55:48.350Z,39.37
2023-05-07T01:58:17.193Z,39.45
2023-05-07T02:00:44.402Z,39.48
2023-05-07T02:03:11.651Z,39.27
2023-05-07T02:05:46.174Z,39.11
2023-05-07T02:08:29.840Z,38.49
2023-05-07T02:10:58.084Z,38.01
2023-05-07T02:13:30.059Z,37.59
2023-05-07T02:15:58.568Z,37.13
2023-05-07T02:18:27.510Z,36.62
2023-05-07T02:20:55.376Z,36.17
2023-05-07T02:23:23.011Z,35.52
2023-05-07T02:25:50.183Z,34.89
2023-05-07T02:28:18.661Z,34.66
2023-05-07T02:31:05.921Z,34.27
2023-05-07T02:33:35.624Z,34.16
2023-05-07T02:36:10.782Z,33.94
2023-05-07T02:39:00.087Z,33.79
2023-05-07T02:41:29.161Z,33.65
2023-05-07T02:43:56.781Z,33.38
2023-05-07T02:46:24.006Z,33.22
2023-05-07T02:48:59.869Z,32.64
2023-05-07T02:51:28.128Z,32.31
2023-05-07T02:53:57.982Z,32.21
2023-05-07T02:56:27.631Z,31.91
2023-05-07T02:58:55.215Z,31.70
2023-05-07T03:01:26.171Z,31.42
2023-05-07T03:04:05.289Z,30.96
2023-05-07T03:06:32.799Z,30.85
2023-05-07T03:08:59.955Z,30.80
2023-05-07T03:11:27.298Z,30.74
2023-05-07T03:13:54.374Z,30.69
2023-05-07T03:16:22.821Z,30.70
2023-05-07T03:18:50.289Z,30.68
2023-05-07T03:21:17.491Z,30.66
2023-05-07T03:23:44.988Z,30.74
2023-05-07T03:26:12.010Z,30.72
2023-05-07T03:28:39.428Z,30.59
2023-05-07T03:31:11.283Z,30.39
2023-05-07T03:33:40.539Z,30.23
2023-05-07T03:36:08.156Z,30.31
2023-05-07T03:38:35.587Z,30.30
2023-05-07T03:41:03.330Z,30.15
2023-05-07T03:43:30.820Z,30.05
2023-05-07T03:46:05.648Z,29.99
2023-05-07T03:48:32.817Z,30.10
2023-05-07T03:51:00.279Z,30.08
2023-05-07T03:53:32.046Z,29.95
2023-05-07T03:55:59.279Z,30.00
2023-05-07T03:58:26.589Z,30.12
2023-05-07T04:00:56.945Z,30.25
2023-05-07T04:03:28.250Z,30.31
2023-05-07T04:05:58.951Z,30.21
2023-05-07T04:08:26.681Z,30.22
2023-05-07T04:10:59.308Z,30.06
2023-05-07T04:13:31.110Z,30.09
2023-05-07T04:16:00.109Z,30.13
2023-05-07T04:18:28.495Z,30.05
2023-05-07T04:20:56.053Z,29.94
2023-05-07T04:23:23.276Z,29.93
2023-05-07T04:25:51.513Z,29.95
2023-05-07T04:28:39.173Z,29.96
2023-05-07T04:31:07.865Z,29.98
2023-05-07T04:33:37.228Z,29.99
2023-05-07T04:36:06.440Z,29.92
2023-05-07T04:38:39.355Z,29.93
2023-05-07T04:41:07.336Z,29.88
2023-05-07T04:43:38.787Z,29.79
2023-05-07T04:46:06.205Z,29.68
2023-05-07T04:48:33.654Z,29.65
2023-05-07T04:51:02.421Z,29.49
2023-05-07T04:53:29.917Z,29.22
2023-05-07T04:55:58.664Z,28.82
2023-05-07T04:58:32.988Z,28.55
2023-05-07T05:01:01.456Z,28.36
2023-05-07T05:03:29.473Z,28.21
2023-05-07T05:06:00.756Z,28.04
2023-05-07T05:08:32.381Z,27.91
2023-05-07T05:11:03.025Z,27.66
2023-05-07T05:13:32.545Z,27.52
2023-05-07T05:16:03.298Z,27.28
2023-05-07T05:18:33.807Z,27.03
2023-05-07T05:21:00.962Z,26.59
2023-05-07T05:23:29.207Z,26.27
2023-05-07T05:25:58.773Z,26.15
2023-05-07T05:28:29.079Z,25.86
2023-05-07T05:30:57.278Z,25.50
2023-05-07T05:33:26.567Z,25.30
2023-05-07T05:35:55.310Z,25.27
2023-05-07T05:38:22.756Z,25.15
2023-05-07T05:40:50.695Z,24.95
2023-05-07T05:43:18.942Z,24.75
2023-05-07T05:45:46.041Z,24.56
2023-05-07T05:48:13.777Z,24.46
2023-05-07T05:50:43.018Z,24.49
2023-05-07T05:53:10.584Z,24.52
2023-05-07T05:55:38.468Z,24.55
2023-05-07T05:58:06.191Z,24.61
2023-05-07T06:00:37.132Z,24.45
2023-05-07T06:03:06.918Z,24.41
2023-05-07T06:05:35.095Z,24.39
2023-05-07T06:08:02.648Z,24.32
2023-05-07T06:10:33.451Z,24.32
2023-05-07T06:13:01.517Z,24.36
2023-05-07T06:15:31.229Z,24.34
2023-05-07T06:18:04.273Z,24.29
2023-05-07T06:20:31.691Z,24.24
2023-05-07T06:23:01.100Z,24.22
2023-05-07T06:25:29.144Z,24.30
2023-05-07T06:27:56.485Z,24.31
2023-05-07T06:30:25.842Z,24.41
2023-05-07T06:32:53.098Z,24.58
2023-05-07T06:35:20.970Z,24.72
2023-05-07T06:37:48.424Z,24.84
2023-05-07T06:40:20.795Z,24.97
2023-05-07T06:42:49.291Z,25.00
2023-05-07T06:45:29.652Z,25.10
2023-05-07T06:47:58.202Z,25.19
2023-05-07T06:50:26.611Z,25.03
2023-05-07T06:52:57.798Z,24.81
2023-05-07T06:55:26.754Z,24.74
2023-05-07T06:57:55.370Z,24.67
2023-05-07T07:00:24.738Z,24.65
2023-05-07T07:02:56.062Z,24.73
2023-05-07T07:05:26.387Z,24.83
2023-05-07T07:07:54.098Z,24.88
2023-05-07T07:10:25.151Z,24.89
2023-05-07T07:12:54.819Z,24.83
2023-05-07T07:15:23.018Z,24.79
2023-05-07T07:17:51.463Z,24.82
2023-05-07T07:20:18.583Z,24.70
2023-05-07T07:22:47.583Z,24.66
2023-05-07T07:25:16.877Z,24.68
2023-05-07T07:27:44.455Z,24.63
2023-05-07T07:30:13.425Z,24.56
2023-05-07T07:32:43.824Z,24.46
2023-05-07T07:35:11.126Z,24.44
2023-05-07T07:37:39.873Z,24.45
2023-05-07T07:40:07.936Z,24.48
2023-05-07T07:42:36.256Z,24.58
2023-05-07T07:45:04.180Z,24.74
2023-05-07T07:47:34.869Z,24.88
2023-05-07T07:50:03.157Z,24.88
2023-05-07T07:52:30.418Z,24.83
2023-05-07T07:54:58.024Z,24.76
2023-05-07T07:57:26.066Z,24.76
2023-05-07T07:59:53.836Z,24.84
2023-05-07T08:02:21.858Z,24.82
2023-05-07T08:04:50.602Z,24.83
2023-05-07T08:07:21.523Z,24.68
2023-05-07T08:09:49.504Z,24.60
2023-05-07T08:12:20.783Z,24.56
2023-05-07T08:14:49.332Z,24.50
2023-05-07T08:17:17.233Z,24.48
2023-05-07T08:19:45.725Z,24.45
2023-05-07T08:22:14.835Z,24.54
2023-05-07T08:24:42.422Z,24.48
2023-05-07T08:27:10.351Z,24.49
2023-05-07T08:29:38.968Z,24.51
2023-05-07T08:32:06.837Z,24.56
2023-05-07T08:34:34.317Z,24.50
2023-05-07T08:37:04.938Z,24.55
2023-05-07T08:39:33.142Z,24.58
2023-05-07T08:42:02.872Z,24.63
2023-05-07T08:44:31.699Z,24.63
2023-05-07T08:46:59.286Z,24.75
2023-05-07T08:49:28.406Z,24.89
2023-05-07T08:51:56.851Z,24.86
2023-05-07T08:54:25.320Z,24.81
2023-05-07T08:56:52.580Z,24.74
2023-05-07T08:59:20.193Z,24.73
2023-05-07T09:01:48.173Z,24.70
2023-05-07T09:04:16.312Z,24.68
2023-05-07T09:06:44.767Z,24.79
2023-05-07T09:09:19.472Z,24.84
2023-05-07T09:11:46.927Z,24.79
2023-05-07T09:14:16.978Z,24.69
2023-05-07T09:16:47.148Z,24.68
2023-05-07T09:19:14.969Z,24.66
2023-05-07T09:21:46.067Z,24.64
2023-05-07T09:24:16.363Z,24.67
2023-05-07T09:26:44.173Z,24.70
2023-05-07T09:29:12.477Z,24.67
2023-05-07T09:31:41.060Z,24.66
2023-05-07T09:34:11.940Z,24.58
2023-05-07T09:36:42.282Z,24.59
2023-05-07T09:39:09.564Z,24.56
2023-05-07T09:41:44.993Z,24.60
2023-05-07T09:44:19.510Z,24.64
2023-05-07T09:46:54.403Z,24.55
2023-05-07T09:49:27.902Z,24.50
2023-05-07T09:52:02.026Z,24.56
2023-05-07T09:54:32.218Z,24.53
2023-05-07T09:57:03.258Z,24.55
2023-05-07T09:59:32.397Z,24.55
2023-05-07T10:02:04.173Z,24.64
2023-05-07T10:04:35.390Z,24.64
2023-05-07T10:07:03.379Z,24.73
2023-05-07T10:09:31.386Z,24.73
2023-05-07T10:11:59.317Z,24.65
2023-05-07T10:14:26.505Z,24.62
2023-05-07T10:16:53.767Z,24.55
2023-05-07T10:19:21.740Z,24.51
2023-05-07T10:21:57.800Z,24.47
2023-05-07T10:24:28.392Z,24.41
2023-05-07T10:26:56.580Z,24.47
2023-05-07T10:29:32.272Z,24.44
2023-05-07T10:32:22.885Z,24.36
2023-05-07T10:34:52.156Z,24.35
2023-05-07T10:37:19.618Z,24.35
2023-05-07T10:39:46.868Z,24.43
2023-05-07T10:42:15.012Z,24.52
2023-05-07T10:44:48.646Z,24.45
2023-05-07T10:47:23.294Z,24.49
2023-05-07T10:50:06.408Z,24.54
2023-05-07T10:52:38.990Z,24.49
2023-05-07T10:55:20.710Z,24.42
2023-05-07T10:57:56.524Z,24.37
2023-05-07T11:03:03.636Z,24.29
2023-05-07T11:05:38.839Z,24.31
2023-05-07T11:08:16.329Z,24.27
2023-05-07T11:11:04.777Z,24.23
2023-05-07T11:13:52.605Z,24.19
2023-05-07T11:16:43.122Z,24.18
2023-05-07T11:19:53.049Z,24.20
2023-05-07T11:22:40.559Z,24.16
2023-05-07T11:25:20.489Z,24.18
2023-05-07T11:27:53.665Z,24.15
2023-05-07T11:30:20.922Z,24.07
2023-05-07T11:32:49.329Z,24.14
2023-05-07T11:35:18.093Z,24.09
2023-05-07T11:37:48.071Z,24.03
2023-05-07T11:40:16.429Z,24.04
2023-05-07T11:42:44.517Z,24.03
2023-05-07T11:45:12.298Z,23.99
2023-05-07T11:47:40.001Z,24.00
2023-05-07T11:50:11.707Z,23.92
2023-05-07T11:52:40.004Z,23.88
2023-05-07T11:55:09.186Z,23.87
2023-05-07T11:57:36.794Z,23.84
2023-05-07T12:00:05.747Z,23.82
2023-05-07T12:02:44.649Z,23.80
2023-05-07T12:05:12.139Z,23.75
2023-05-07T12:07:39.702Z,23.72
2023-05-07T12:10:07.522Z,23.68
2023-05-07T12:12:42.514Z,23.66
2023-05-07T12:15:11.341Z,23.62
2023-05-07T12:17:38.717Z,23.58
2023-05-07T12:20:06.830Z,23.55
2023-05-07T12:22:34.249Z,23.48
2023-05-07T12:25:01.385Z,23.46
2023-05-07T12:27:29.101Z,23.44
2023-05-07T12:29:58.349Z,23.37
2023-05-07T12:32:25.957Z,23.29
2023-05-07T12:34:53.212Z,23.26
2023-05-07T12:37:27.219Z,23.23
2023-05-07T12:40:10.915Z,23.20
2023-05-07T12:42:41.934Z,23.12
2023-05-07T12:45:14.188Z,23.07
2023-05-07T12:47:46.210Z,22.99
2023-05-07T12:50:15.015Z,22.97
2023-05-07T12:52:42.521Z,22.91
2023-05-07T12:55:10.721Z,22.87
2023-05-07T12:57:43.328Z,22.86
2023-05-07T13:00:11.414Z,22.79
2023-05-07T13:02:39.111Z,22.72
2023-05-07T13:05:07.036Z,22.63
2023-05-07T13:07:34.767Z,22.56
2023-05-07T13:10:01.981Z,22.50
2023-05-07T13:12:29.404Z,22.40
2023-05-07T13:14:56.832Z,22.29
2023-05-07T13:17:24.065Z,22.19
2023-05-07T13:19:51.648Z,22.08
2023-05-07T13:22:19.130Z,21.98
2023-05-07T13:24:46.504Z,21.86
2023-05-07T13:27:13.675Z,21.79
2023-05-07T13:29:40.742Z,21.68
2023-05-07T13:32:08.612Z,21.55
2023-05-07T13:34:36.144Z,21.45
2023-05-07T13:37:03.229Z,21.32
2023-05-07T13:39:30.981Z,21.19
2023-05-07T13:41:58.448Z,21.10
2023-05-07T13:44:27.046Z,20.99
2023-05-07T13:46:54.239Z,20.89
2023-05-07T13:49:21.352Z,20.82
2023-05-07T13:51:48.730Z,20.76
2023-05-07T13:54:16.588Z,20.67
2023-05-07T13:56:43.633Z,20.62
2023-05-07T13:59:11.001Z,20.60
2023-05-07T14:01:38.195Z,20.56
2023-05-07T14:04:05.704Z,20.52
2023-05-07T14:06:33.141Z,20.47
2023-05-07T14:09:00.859Z,20.43
2023-05-07T14:11:28.557Z,20.37
2023-05-07T14:13:57.519Z,20.32
2023-05-07T14:16:24.669Z,20.29
2023-05-07T14:18:52.239Z,20.22
2023-05-07T14:21:19.578Z,20.12
2023-05-07T14:23:47.435Z,20.06
2023-05-07T14:26:14.646Z,19.98
2023-05-07T14:28:47.074Z,19.92
2023-05-07T14:31:14.564Z,19.79
2023-05-07T14:33:42.319Z,19.66
2023-05-07T14:36:09.958Z,19.60
2023-05-07T14:38:37.376Z,19.56
2023-05-07T14:41:05.057Z,19.45
2023-05-07T14:43:32.542Z,19.38
2023-05-07T14:45:59.826Z,19.30
2023-05-07T14:48:27.290Z,19.26
2023-05-07T14:50:54.446Z,19.19
2023-05-07T14:53:22.525Z,19.07
2023-05-07T14:55:49.932Z,18.88
2023-05-07T14:58:17.170Z,18.86
2023-05-07T15:00:44.590Z,18.84
2023-05-07T15:03:12.357Z,18.81
2023-05-07T15:05:42.885Z,18.69
2023-05-07T15:08:10.583Z,18.53
2023-05-07T15:10:41.907Z,18.42
2023-05-07T15:13:13.338Z,18.28
2023-05-07T15:15:43.386Z,18.16
2023-05-07T15:18:10.787Z,18.07
2023-05-07T15:20:38.333Z,18.10
2023-05-07T15:23:06.886Z,18.14
2023-05-07T15:25:34.549Z,18.13
2023-05-07T15:28:02.186Z,18.08
2023-05-07T15:30:29.698Z,18.10
2023-05-07T15:32:57.406Z,18.06
2023-05-07T15:35:26.686Z,18.02
2023-05-07T15:37:54.655Z,18.05
2023-05-07T15:40:22.012Z,18.02
2023-05-07T15:42:49.614Z,18.02
2023-05-07T15:45:17.173Z,17.95
2023-05-07T15:47:44.791Z,17.89
2023-05-07T15:50:12.491Z,17.77
2023-05-07T15:52:41.549Z,17.73
2023-05-07T15:55:09.911Z,17.62
2023-05-07T15:57:37.681Z,17.56
2023-05-07T16:00:08.916Z,17.45
2023-05-07T16:02:42.324Z,17.34
2023-05-07T16:05:11.407Z,17.26
2023-05-07T16:07:39.860Z,17.22
2023-05-07T16:10:09.607Z,17.17
2023-05-07T16:12:37.433Z,17.11
2023-05-07T16:15:05.711Z,17.05
2023-05-07T16:17:34.102Z,17.04
2023-05-07T16:20:02.197Z,17.00
2023-05-07T16:22:31.428Z,16.95
2023-05-07T16:24:58.814Z,16.85
2023-05-07T16:27:26.209Z,16.80
2023-05-07T16:29:53.872Z,16.70
2023-05-07T16:32:21.259Z,16.65
2023-05-07T16:34:48.688Z,16.60
2023-05-07T16:37:15.930Z,16.61
2023-05-07T16:39:43.004Z,16.59
2023-05-07T16:42:10.225Z,16.57
2023-05-07T16:44:37.265Z,16.56
2023-05-07T16:47:04.858Z,16.46
2023-05-07T16:49:31.940Z,16.35
2023-05-07T16:51:59.066Z,16.21
2023-05-07T16:54:26.150Z,16.20
2023-05-07T16:56:53.669Z,16.21
2023-05-07T16:59:20.823Z,16.14
2023-05-07T17:01:48.227Z,16.08
2023-05-07T17:04:15.372Z,16.16
2023-05-07T17:06:42.815Z,16.29
2023-05-07T17:09:10.281Z,16.50
2023-05-07T17:11:37.581Z,16.58
2023-05-07T17:14:05.788Z,16.65
2023-05-07T17:16:33.682Z,16.72
2023-05-07T17:19:00.964Z,16.74
2023-05-07T17:21:28.942Z,16.70
2023-05-07T17:23:56.121Z,16.75
2023-05-07T17:26:23.532Z,16.81
2023-05-07T17:28:50.767Z,16.74
2023-05-07T17:31:18.711Z,16.73
2023-05-07T17:33:46.237Z,16.72
2023-05-07T17:36:14.217Z,16.81
2023-05-07T17:38:41.423Z,16.90
2023-05-07T17:41:08.564Z,16.98
2023-05-07T17:43:35.804Z,16.95
2023-05-07T17:46:03.252Z,16.80
2023-05-07T17:48:31.126Z,16.72
2023-05-07T17:51:04.655Z,16.57
2023-05-07T17:53:32.223Z,16.41
2023-05-07T17:55:59.521Z,16.35
2023-05-07T17:58:27.084Z,16.24
2023-05-07T18:00:55.180Z,16.23
2023-05-07T18:03:24.229Z,16.17
2023-05-07T18:05:51.743Z,16.07
2023-05-07T18:08:18.709Z,16.02
2023-05-07T18:10:46.026Z,15.91
2023-05-07T18:13:13.424Z,15.83
2023-05-07T18:15:40.728Z,15.75
2023-05-07T18:18:08.107Z,15.65
2023-05-07T18:20:35.561Z,15.57
2023-05-07T18:23:04.032Z,15.51
2023-05-07T18:25:31.545Z,15.41
2023-05-07T18:27:58.690Z,15.31
2023-05-07T18:30:26.038Z,15.22
2023-05-07T18:32:53.393Z,15.11
2023-05-07T18:35:20.620Z,15.04
2023-05-07T18:37:47.672Z,14.97
2023-05-07T18:40:15.095Z,14.94
2023-05-07T18:42:42.703Z,14.81
2023-05-07T18:45:10.335Z,14.78
2023-05-07T18:47:37.415Z,14.67
2023-05-07T18:50:06.264Z,14.60
2023-05-07T18:52:35.902Z,14.54
2023-05-07T18:55:03.752Z,14.50
2023-05-07T18:57:31.157Z,14.45
2023-05-07T18:59:58.558Z,14.42
2023-05-07T19:02:25.920Z,14.44
2023-05-07T19:04:53.244Z,14.39
2023-05-07T19:07:20.786Z,14.27
2023-05-07T19:10:00.985Z,14.26
2023-05-07T19:12:31.135Z,14.26
2023-05-07T19:14:58.359Z,14.24
2023-05-07T19:17:25.532Z,14.19
2023-05-07T19:19:52.913Z,14.16
2023-05-07T19:22:20.260Z,14.11
2023-05-07T19:24:47.639Z,14.05
2023-05-07T19:27:15.110Z,14.01
2023-05-07T19:29:42.958Z,13.97
2023-05-07T19:32:10.102Z,13.98
2023-05-07T19:34:37.651Z,13.94
2023-05-07T19:37:05.584Z,13.90
2023-05-07T19:39:33.327Z,13.87
2023-05-07T19:42:00.317Z,13.86
2023-05-07T19:44:27.758Z,13.84
2023-05-07T19:46:55.155Z,13.75
2023-05-07T19:49:22.538Z,13.67
2023-05-07T19:51:49.761Z,13.64
2023-05-07T19:54:17.207Z,13.58
2023-05-07T19:56:44.560Z,13.58
2023-05-07T19:59:11.698Z,13.55
2023-05-07T20:01:38.904Z,13.56
2023-05-07T20:04:06.319Z,13.54
2023-05-07T20:06:33.700Z,13.52
2023-05-07T20:09:01.250Z,13.47
2023-05-07T20:11:28.490Z,13.43
2023-05-07T20:13:55.660Z,13.41
2023-05-07T20:16:23.007Z,13.37
2023-05-07T20:18:50.321Z,13.33
2023-05-07T20:21:17.686Z,13.28
2023-05-07T20:23:44.827Z,13.28
2023-05-07T20:26:12.469Z,13.25
2023-05-07T20:28:39.691Z,13.22
2023-05-07T20:31:07.052Z,13.30
2023-05-07T20:33:34.538Z,13.35
2023-05-07T20:36:01.945Z,13.36
2023-05-07T20:38:33.515Z,13.31
2023-05-07T20:41:11.399Z,13.22
2023-05-07T20:43:39.014Z,13.12
2023-05-07T20:46:07.592Z,13.01
2023-05-07T20:48:34.985Z,12.94
2023-05-07T20:51:02.318Z,12.83
2023-05-07T20:53:30.985Z,12.74
2023-05-07T20:55:59.816Z,12.70
2023-05-07T20:58:29.834Z,12.68
2023-05-07T21:00:57.049Z,12.62
2023-05-07T21:03:24.441Z,12.56
2023-05-07T21:05:55.953Z,12.49
2023-05-07T21:08:23.539Z,12.46
2023-05-07T21:10:51.667Z,12.37
2023-05-07T21:13:18.921Z,12.33
2023-05-07T21:15:46.318Z,12.32
2023-05-07T21:18:13.696Z,12.33
2023-05-07T21:20:41.165Z,12.30
2023-05-07T21:23:08.557Z,12.30
2023-05-07T21:25:39.308Z,12.31
2023-05-07T21:28:08.460Z,12.26
2023-05-07T21:30:36.611Z,12.19
2023-05-07T21:33:06.302Z,12.16
2023-05-07T21:35:36.537Z,12.14
2023-05-07T21:38:03.762Z,12.08
2023-05-07T21:40:31.484Z,12.04
2023-05-07T21:43:00.078Z,12.02
2023-05-07T21:45:27.293Z,12.09
2023-05-07T21:47:54.585Z,12.14
2023-05-07T21:50:22.293Z,12.09
2023-05-07T21:52:49.724Z,12.01
2023-05-07T21:55:20.210Z,11.98
2023-05-07T21:58:01.244Z,11.91
2023-05-07T22:00:32.771Z,11.89
2023-05-07T22:03:00.287Z,11.85
2023-05-07T22:05:27.700Z,11.86
2023-05-07T22:07:54.744Z,11.84
2023-05-07T22:10:22.945Z,11.85
2023-05-07T22:12:50.492Z,11.84
2023-05-07T22:15:18.418Z,11.85
2023-05-07T22:17:45.804Z,11.78
2023-05-07T22:20:13.403Z,11.64
2023-05-07T22:22:53.183Z,11.53
2023-05-07T22:25:24.023Z,11.42
2023-05-07T22:27:51.544Z,11.34
2023-05-07T22:30:19.092Z,11.26
2023-05-07T22:32:46.195Z,11.22
2023-05-07T22:35:13.402Z,11.19
2023-05-07T22:37:40.675Z,11.21
2023-05-07T22:40:08.412Z,11.24
2023-05-07T22:42:35.624Z,11.33
2023-05-07T22:45:03.259Z,11.53
2023-05-07T22:47:33.566Z,12.23
2023-05-07T22:50:01.458Z,13.16
2023-05-07T22:52:29.366Z,14.12
2023-05-07T22:54:56.324Z,15.01
2023-05-07T22:57:23.464Z,15.90
2023-05-07T22:59:54.380Z,16.77
2023-05-07T23:02:22.068Z,17.59
2023-05-07T23:04:50.057Z,18.42
2023-05-07T23:07:17.038Z,19.14
2023-05-07T23:09:44.437Z,19.93
2023-05-07T23:12:12.033Z,20.80
2023-05-07T23:14:39.454Z,21.57
2023-05-07T23:17:06.683Z,22.28
2023-05-07T23:19:34.298Z,22.98
2023-05-07T23:22:01.759Z,23.64
2023-05-07T23:24:28.744Z,24.32
2023-05-07T23:26:56.081Z,24.98
2023-05-07T23:29:23.614Z,25.63
2023-05-07T23:31:51.227Z,26.22
2023-05-07T23:34:23.942Z,26.79
2023-05-07T23:36:51.642Z,27.40
2023-05-07T23:39:19.136Z,27.92
2023-05-07T23:41:46.511Z,28.29
2023-05-07T23:44:16.119Z,28.61
2023-05-07T23:46:44.245Z,29.01
2023-05-07T23:49:11.475Z,29.68
2023-05-07T23:51:38.622Z,30.35
2023-05-07T23:54:06.748Z,30.92
2023-05-07T23:56:34.163Z,31.44
2023-05-07T23:59:01.393Z,31.96
